Tayabas, Philippines

11:39 PM PHT on May 23, 2015 (GMT +0800)
Masalukot II Candelaria | | Change Station
CLOSE
Current Station
Personal Weather Station
Location: Candelaria, CALABARZON
Elevation: 295 ft
Nearby Weather Stations

Elev 295 ft 13.94 °N, 121.42 °E | Updated 9 minutes ago

Partly Cloudy
Partly Cloudy
79.6 °F
Feels Like 84 °F
N
0.0
Wind Variable Wind from South
Gusts 0.0 mph

Today
High -- | Low -- °F
--% Chance of Precip.
Yesterday
High -- | Low -- °F
Precip. -- in
5:25 AM 6:15 PM
Waxing Crescent, 31% visible
Pressure 29.89 in
Visibility 6.2 miles
Clouds Few 2500 ft
Heat Index 84 °F
Dew Point 76 °F
Humidity 87%
Rainfall in
Snow Depth Not available.
UV 0 out of 12
Pollen Not available.
Air Quality Not available.
Flu Activity Not available.
METAR RPLL 231500Z VRB01KT 9999 FEW025 29/27 Q1012 NOSIG RMK A2988

More Conditions Fewer Conditions

Pressure 29.89 in
Visibility 6.2 miles
Clouds Few 2500 ft
Heat Index 84 °F
Dew Point 76 °F
Humidity 87%
Rainfall in
Snow Depth Not available.
UV 0 out of 12
Pollen Not available.
Air Quality Not available.
Flu Activity Not available.
METAR RPLL 231500Z VRB01KT 9999 FEW025 29/27 Q1012 NOSIG RMK A2988

More Conditions Fewer Conditions

10-Day Weather Forecast

Almanac

Astronomy

May. 23, 2015 Rise Set
Actual Time
Civil Twilight
Nautical Twilight
Astronomical Twilight
Moon
Length of Visible Light
Length of Day
Tomorrow will be .
, % of the Moon is Illuminated

Today's Extremes

Country Highs Country Lows

Community

WunderPhotos

Upload Photos

1,823,497 photos uploaded!

WunderBlogs® & News

Nearby

Air Quality

  Air Quality AQ Index Pollutant
Not available.

Snow Depth

Station Depth Elevation

Earthquake Activity

City Distance Mag. Time & Date
Minimum magnitude displayed is 2.5.

Coastal Water Temperatures

Place Temperature

Stations

Nearby Weather Stations

Station Location Temp. Windchill Dew Point Humidity Wind Precip. Elev Updated Type